Denver, Illinois
Current Conditions -  °F | °C
As of 8:55 PM on Sunday 21 Dec 2014 (Local Time) from KMQB Reporting Station
Overcast Overcast  
Wind Chill: 29°   Ceiling: 4400
Heat Index: 37°   Visibility: 10mi
Dew Point: 33°   Wind: 12mph
Humidity: 87%   Direction: 140°SE
Pressure: 29.97"   Gusts: NA
Location:  40.4155°N, 91.0269°W
Report Text: KMQB 220255Z AUTO 14010KT 10SM SCT033 BKN044 OVC049 03/01 A2997 RMK AO2 T00260007
Loading
Personal Weather Stations






























Interactive Weather Map New forecast layout! Learn more

10-Day Weather Forecast

Advertisements
Track Severe Weather on mobile